sensor_id;sensor_type;location;lat;lon;timestamp;temperature;humidity
2855;DHT22;1435;49.472;10.940;2023-03-03T00:04:19;4.70;99.60
2855;DHT22;1435;49.472;10.940;2023-03-03T00:09:21;4.60;99.60
2855;DHT22;1435;49.472;10.940;2023-03-03T00:14:28;4.50;99.60
2855;DHT22;1435;49.472;10.940;2023-03-03T00:19:37;4.40;99.80
2855;DHT22;1435;49.472;10.940;2023-03-03T00:24:40;4.30;99.90
2855;DHT22;1435;49.472;10.940;2023-03-03T00:29:47;4.20;99.90
2855;DHT22;1435;49.472;10.940;2023-03-03T00:34:51;4.20;99.90
2855;DHT22;1435;49.472;10.940;2023-03-03T00:39:54;4.10;99.90
2855;DHT22;1435;49.472;10.940;2023-03-03T00:44:59;4.10;99.90
2855;DHT22;1435;49.472;10.940;2023-03-03T00:50:27;4.00;99.90
2855;DHT22;1435;49.472;10.940;2023-03-03T00:55:29;4.00;99.90
2855;DHT22;1435;49.472;10.940;2023-03-03T01:00:33;3.90;99.90
2855;DHT22;1435;49.472;10.940;2023-03-03T01:05:35;3.80;99.90
2855;DHT22;1435;49.472;10.940;2023-03-03T01:10:39;3.70;99.90
2855;DHT22;1435;49.472;10.940;2023-03-03T01:15:43;3.70;99.90
2855;DHT22;1435;49.472;10.940;2023-03-03T01:20:45;3.60;99.90
2855;DHT22;1435;49.472;10.940;2023-03-03T01:25:47;3.60;99.90
2855;DHT22;1435;49.472;10.940;2023-03-03T01:30:50;3.50;99.90
2855;DHT22;1435;49.472;10.940;2023-03-03T01:35:52;3.50;99.90
2855;DHT22;1435;49.472;10.940;2023-03-03T01:40:55;3.50;99.90
2855;DHT22;1435;49.472;10.940;2023-03-03T01:51:44;3.50;99.90
2855;DHT22;1435;49.472;10.940;2023-03-03T01:56:49;3.50;99.90
2855;DHT22;1435;49.472;10.940;2023-03-03T02:01:52;3.40;99.90
2855;DHT22;1435;49.472;10.940;2023-03-03T02:06:58;3.40;99.90
2855;DHT22;1435;49.472;10.940;2023-03-03T02:12:05;3.40;99.90
2855;DHT22;1435;49.472;10.940;2023-03-03T02:17:07;3.30;99.90
2855;DHT22;1435;49.472;10.940;2023-03-03T02:22:12;3.30;99.90
2855;DHT22;1435;49.472;10.940;2023-03-03T02:27:16;3.30;99.90
2855;DHT22;1435;49.472;10.940;2023-03-03T02:32:19;3.20;99.90
2855;DHT22;1435;49.472;10.940;2023-03-03T02:37:20;3.20;99.90
2855;DHT22;1435;49.472;10.940;2023-03-03T02:42:26;3.10;99.90
2855;DHT22;1435;49.472;10.940;2023-03-03T02:47:30;2.90;99.90
2855;DHT22;1435;49.472;10.940;2023-03-03T02:52:31;2.90;99.90
2855;DHT22;1435;49.472;10.940;2023-03-03T02:57:34;2.80;99.90
2855;DHT22;1435;49.472;10.940;2023-03-03T03:02:36;2.70;99.90
2855;DHT22;1435;49.472;10.940;2023-03-03T03:07:38;2.70;99.90
2855;DHT22;1435;49.472;10.940;2023-03-03T03:12:41;2.70;99.90
2855;DHT22;1435;49.472;10.940;2023-03-03T03:17:43;2.70;99.90
2855;DHT22;1435;49.472;10.940;2023-03-03T03:22:44;2.70;99.90
2855;DHT22;1435;49.472;10.940;2023-03-03T03:27:47;2.70;99.90
2855;DHT22;1435;49.472;10.940;2023-03-03T03:32:49;2.70;99.90
2855;DHT22;1435;49.472;10.940;2023-03-03T03:37:51;2.70;99.90
2855;DHT22;1435;49.472;10.940;2023-03-03T03:42:54;2.70;99.90
2855;DHT22;1435;49.472;10.940;2023-03-03T03:47:56;2.70;99.90
2855;DHT22;1435;49.472;10.940;2023-03-03T03:52:58;2.70;99.90
2855;DHT22;1435;49.472;10.940;2023-03-03T03:58:01;2.70;99.90
2855;DHT22;1435;49.472;10.940;2023-03-03T04:03:02;2.70;99.90
2855;DHT22;1435;49.472;10.940;2023-03-03T04:08:05;2.70;99.90
2855;DHT22;1435;49.472;10.940;2023-03-03T04:13:08;2.70;99.90
2855;DHT22;1435;49.472;10.940;2023-03-03T04:18:09;2.70;99.90
2855;DHT22;1435;49.472;10.940;2023-03-03T04:23:11;2.70;99.90
2855;DHT22;1435;49.472;10.940;2023-03-03T04:28:16;2.70;99.90
2855;DHT22;1435;49.472;10.940;2023-03-03T04:33:18;2.70;99.90
2855;DHT22;1435;49.472;10.940;2023-03-03T04:38:19;2.70;99.90
2855;DHT22;1435;49.472;10.940;2023-03-03T04:43:23;2.70;99.90
2855;DHT22;1435;49.472;10.940;2023-03-03T04:48:25;2.60;99.90
2855;DHT22;1435;49.472;10.940;2023-03-03T04:53:26;2.50;99.90
2855;DHT22;1435;49.472;10.940;2023-03-03T04:58:29;2.50;99.90
2855;DHT22;1435;49.472;10.940;2023-03-03T05:03:31;2.50;99.90
2855;DHT22;1435;49.472;10.940;2023-03-03T05:08:33;2.40;99.90
2855;DHT22;1435;49.472;10.940;2023-03-03T05:13:36;2.40;99.90
2855;DHT22;1435;49.472;10.940;2023-03-03T05:18:38;2.40;99.90
2855;DHT22;1435;49.472;10.940;2023-03-03T05:23:41;2.30;99.90
2855;DHT22;1435;49.472;10.940;2023-03-03T05:28:44;2.40;99.90
2855;DHT22;1435;49.472;10.940;2023-03-03T05:33:45;2.40;99.90
2855;DHT22;1435;49.472;10.940;2023-03-03T05:38:47;2.30;99.90
2855;DHT22;1435;49.472;10.940;2023-03-03T05:43:50;2.30;99.90
2855;DHT22;1435;49.472;10.940;2023-03-03T05:48:52;2.30;99.90
2855;DHT22;1435;49.472;10.940;2023-03-03T05:53:53;2.30;99.90
2855;DHT22;1435;49.472;10.940;2023-03-03T05:58:56;2.30;99.90
2855;DHT22;1435;49.472;10.940;2023-03-03T06:03:58;2.30;99.90
2855;DHT22;1435;49.472;10.940;2023-03-03T06:09:00;2.30;99.90
2855;DHT22;1435;49.472;10.940;2023-03-03T06:14:03;2.30;99.90
2855;DHT22;1435;49.472;10.940;2023-03-03T06:19:04;2.30;99.90
2855;DHT22;1435;49.472;10.940;2023-03-03T06:24:07;2.30;99.90
2855;DHT22;1435;49.472;10.940;2023-03-03T06:29:10;2.40;99.90
2855;DHT22;1435;49.472;10.940;2023-03-03T06:34:12;2.30;99.90
2855;DHT22;1435;49.472;10.940;2023-03-03T06:39:13;2.30;99.90
2855;DHT22;1435;49.472;10.940;2023-03-03T06:44:17;2.30;99.90
2855;DHT22;1435;49.472;10.940;2023-03-03T06:49:18;2.40;99.90
2855;DHT22;1435;49.472;10.940;2023-03-03T06:54:23;2.40;99.90
2855;DHT22;1435;49.472;10.940;2023-03-03T06:59:29;2.40;99.90
2855;DHT22;1435;49.472;10.940;2023-03-03T07:04:32;2.40;99.90
2855;DHT22;1435;49.472;10.940;2023-03-03T07:09:34;2.40;99.90
2855;DHT22;1435;49.472;10.940;2023-03-03T07:14:44;2.50;99.90
2855;DHT22;1435;49.472;10.940;2023-03-03T07:19:46;2.60;99.90
2855;DHT22;1435;49.472;10.940;2023-03-03T07:24:50;2.60;99.90
2855;DHT22;1435;49.472;10.940;2023-03-03T07:30:08;2.70;99.90
2855;DHT22;1435;49.472;10.940;2023-03-03T07:35:28;2.70;99.90
2855;DHT22;1435;49.472;10.940;2023-03-03T07:40:35;2.80;99.90
2855;DHT22;1435;49.472;10.940;2023-03-03T07:45:39;2.90;99.90
2855;DHT22;1435;49.472;10.940;2023-03-03T07:50:41;2.90;99.90
2855;DHT22;1435;49.472;10.940;2023-03-03T07:55:43;3.00;99.90
2855;DHT22;1435;49.472;10.940;2023-03-03T08:06:45;3.20;99.90
2855;DHT22;1435;49.472;10.940;2023-03-03T08:11:53;3.30;99.90
2855;DHT22;1435;49.472;10.940;2023-03-03T08:16:56;3.40;99.90
2855;DHT22;1435;49.472;10.940;2023-03-03T08:22:01;3.40;99.90
2855;DHT22;1435;49.472;10.940;2023-03-03T08:27:03;3.60;99.90
2855;DHT22;1435;49.472;10.940;2023-03-03T08:32:05;3.70;99.90
2855;DHT22;1435;49.472;10.940;2023-03-03T08:37:08;3.80;99.90
2855;DHT22;1435;49.472;10.940;2023-03-03T08:42:10;3.90;99.90
2855;DHT22;1435;49.472;10.940;2023-03-03T08:47:11;4.10;99.90
2855;DHT22;1435;49.472;10.940;2023-03-03T08:52:14;4.20;99.90
2855;DHT22;1435;49.472;10.940;2023-03-03T08:57:16;4.30;99.90
2855;DHT22;1435;49.472;10.940;2023-03-03T09:02:18;4.40;99.90
2855;DHT22;1435;49.472;10.940;2023-03-03T09:07:21;4.50;99.90
2855;DHT22;1435;49.472;10.940;2023-03-03T09:12:28;4.60;99.90
2855;DHT22;1435;49.472;10.940;2023-03-03T09:17:32;4.70;99.90
2855;DHT22;1435;49.472;10.940;2023-03-03T09:22:37;4.80;99.90
2855;DHT22;1435;49.472;10.940;2023-03-03T09:27:39;4.90;99.90
2855;DHT22;1435;49.472;10.940;2023-03-03T09:32:41;4.90;99.90
2855;DHT22;1435;49.472;10.940;2023-03-03T09:37:46;5.00;99.90
2855;DHT22;1435;49.472;10.940;2023-03-03T09:42:57;5.10;99.90
2855;DHT22;1435;49.472;10.940;2023-03-03T09:53:57;5.20;99.90
2855;DHT22;1435;49.472;10.940;2023-03-03T09:59:09;5.30;99.90
2855;DHT22;1435;49.472;10.940;2023-03-03T10:09:48;5.50;99.90
2855;DHT22;1435;49.472;10.940;2023-03-03T10:15:07;5.60;99.90
2855;DHT22;1435;49.472;10.940;2023-03-03T10:20:33;5.60;99.90
2855;DHT22;1435;49.472;10.940;2023-03-03T10:25:40;5.70;99.90
2855;DHT22;1435;49.472;10.940;2023-03-03T10:30:49;5.80;99.90
2855;DHT22;1435;49.472;10.940;2023-03-03T10:36:09;5.90;99.90
2855;DHT22;1435;49.472;10.940;2023-03-03T10:41:34;6.00;99.90
2855;DHT22;1435;49.472;10.940;2023-03-03T10:46:51;6.10;99.90
2855;DHT22;1435;49.472;10.940;2023-03-03T10:52:06;6.20;99.90
2855;DHT22;1435;49.472;10.940;2023-03-03T10:57:19;6.30;99.90
2855;DHT22;1435;49.472;10.940;2023-03-03T11:02:29;6.40;99.90
2855;DHT22;1435;49.472;10.940;2023-03-03T11:07:36;6.50;99.90
2855;DHT22;1435;49.472;10.940;2023-03-03T11:12:48;6.60;99.90
2855;DHT22;1435;49.472;10.940;2023-03-03T11:18:02;6.70;99.90
2855;DHT22;1435;49.472;10.940;2023-03-03T11:23:26;6.80;99.90
2855;DHT22;1435;49.472;10.940;2023-03-03T11:28:45;6.90;99.90
2855;DHT22;1435;49.472;10.940;2023-03-03T11:33:57;7.10;99.90
2855;DHT22;1435;49.472;10.940;2023-03-03T11:39:04;7.20;99.90
2855;DHT22;1435;49.472;10.940;2023-03-03T11:44:19;7.30;99.90
2855;DHT22;1435;49.472;10.940;2023-03-03T11:49:24;7.40;99.90
2855;DHT22;1435;49.472;10.940;2023-03-03T11:54:33;7.50;99.90
2855;DHT22;1435;49.472;10.940;2023-03-03T12:00:01;7.70;99.90
2855;DHT22;1435;49.472;10.940;2023-03-03T12:05:11;7.80;99.90
2855;DHT22;1435;49.472;10.940;2023-03-03T12:10:22;7.90;99.90
2855;DHT22;1435;49.472;10.940;2023-03-03T12:15:34;8.00;99.90
2855;DHT22;1435;49.472;10.940;2023-03-03T12:20:43;8.10;99.90
2855;DHT22;1435;49.472;10.940;2023-03-03T12:25:50;8.30;99.90
2855;DHT22;1435;49.472;10.940;2023-03-03T12:31:14;8.40;99.90
2855;DHT22;1435;49.472;10.940;2023-03-03T12:36:25;8.50;99.90
2855;DHT22;1435;49.472;10.940;2023-03-03T12:41:35;8.60;99.90
2855;DHT22;1435;49.472;10.940;2023-03-03T12:46:45;8.70;99.90
2855;DHT22;1435;49.472;10.940;2023-03-03T12:51:56;8.90;99.90
2855;DHT22;1435;49.472;10.940;2023-03-03T12:57:13;9.10;99.90
2855;DHT22;1435;49.472;10.940;2023-03-03T13:02:32;9.20;99.90
2855;DHT22;1435;49.472;10.940;2023-03-03T13:07:43;9.40;99.80
2855;DHT22;1435;49.472;10.940;2023-03-03T13:12:50;9.60;99.90
2855;DHT22;1435;49.472;10.940;2023-03-03T13:18:04;9.70;98.70
2855;DHT22;1435;49.472;10.940;2023-03-03T13:23:16;9.90;98.50
2855;DHT22;1435;49.472;10.940;2023-03-03T13:28:26;10.10;98.10
2855;DHT22;1435;49.472;10.940;2023-03-03T13:33:33;10.30;97.20
2855;DHT22;1435;49.472;10.940;2023-03-03T13:38:40;10.60;96.20
2855;DHT22;1435;49.472;10.940;2023-03-03T13:43:45;10.70;95.90
2855;DHT22;1435;49.472;10.940;2023-03-03T13:49:17;10.90;96.10
2855;DHT22;1435;49.472;10.940;2023-03-03T13:54:35;11.20;94.00
2855;DHT22;1435;49.472;10.940;2023-03-03T13:59:49;11.40;94.30
2855;DHT22;1435;49.472;10.940;2023-03-03T14:05:00;11.60;93.60
2855;DHT22;1435;49.472;10.940;2023-03-03T14:10:07;11.70;93.20
2855;DHT22;1435;49.472;10.940;2023-03-03T14:15:17;11.90;92.60
2855;DHT22;1435;49.472;10.940;2023-03-03T14:20:28;12.10;91.40
2855;DHT22;1435;49.472;10.940;2023-03-03T14:25:55;12.40;91.30
2855;DHT22;1435;49.472;10.940;2023-03-03T14:30:57;12.50;91.20
2855;DHT22;1435;49.472;10.940;2023-03-03T14:36:12;12.70;90.60
2855;DHT22;1435;49.472;10.940;2023-03-03T14:41:18;13.00;88.10
2855;DHT22;1435;49.472;10.940;2023-03-03T14:46:33;13.20;86.10
2855;DHT22;1435;49.472;10.940;2023-03-03T14:51:42;13.20;85.50
2855;DHT22;1435;49.472;10.940;2023-03-03T14:57:05;13.30;86.40
2855;DHT22;1435;49.472;10.940;2023-03-03T15:02:28;13.40;83.20
2855;DHT22;1435;49.472;10.940;2023-03-03T15:07:34;13.50;85.40
2855;DHT22;1435;49.472;10.940;2023-03-03T15:12:38;13.60;80.80
2855;DHT22;1435;49.472;10.940;2023-03-03T15:17:42;13.70;78.60
2855;DHT22;1435;49.472;10.940;2023-03-03T15:22:48;13.60;75.40
2855;DHT22;1435;49.472;10.940;2023-03-03T15:27:56;13.70;75.70
2855;DHT22;1435;49.472;10.940;2023-03-03T15:33:12;13.70;74.40
2855;DHT22;1435;49.472;10.940;2023-03-03T15:38:31;13.80;74.90
2855;DHT22;1435;49.472;10.940;2023-03-03T15:43:37;13.90;75.80
2855;DHT22;1435;49.472;10.940;2023-03-03T15:48:48;13.90;75.20
2855;DHT22;1435;49.472;10.940;2023-03-03T15:54:18;13.80;73.30
2855;DHT22;1435;49.472;10.940;2023-03-03T15:59:35;13.80;74.30
2855;DHT22;1435;49.472;10.940;2023-03-03T16:04:48;13.80;73.50
2855;DHT22;1435;49.472;10.940;2023-03-03T16:10:03;13.80;73.20
2855;DHT22;1435;49.472;10.940;2023-03-03T16:15:25;13.50;72.60
2855;DHT22;1435;49.472;10.940;2023-03-03T16:20:35;13.40;73.50
2855;DHT22;1435;49.472;10.940;2023-03-03T16:25:57;13.20;72.50
2855;DHT22;1435;49.472;10.940;2023-03-03T16:31:03;13.00;74.50
2855;DHT22;1435;49.472;10.940;2023-03-03T16:36:21;12.90;75.10
2855;DHT22;1435;49.472;10.940;2023-03-03T16:41:37;12.80;74.50
2855;DHT22;1435;49.472;10.940;2023-03-03T16:46:44;12.50;75.00
2855;DHT22;1435;49.472;10.940;2023-03-03T16:51:49;12.30;76.00
2855;DHT22;1435;49.472;10.940;2023-03-03T16:57:06;12.00;76.00
2855;DHT22;1435;49.472;10.940;2023-03-03T17:02:31;11.80;74.70
2855;DHT22;1435;49.472;10.940;2023-03-03T17:07:42;11.60;73.70
2855;DHT22;1435;49.472;10.940;2023-03-03T17:13:01;11.30;72.80
2855;DHT22;1435;49.472;10.940;2023-03-03T17:18:11;11.10;72.50
2855;DHT22;1435;49.472;10.940;2023-03-03T17:23:59;10.80;74.10
2855;DHT22;1435;49.472;10.940;2023-03-03T17:29:17;10.50;75.50
2855;DHT22;1435;49.472;10.940;2023-03-03T17:34:31;10.30;75.70
2855;DHT22;1435;49.472;10.940;2023-03-03T17:39:49;10.00;76.70
2855;DHT22;1435;49.472;10.940;2023-03-03T17:45:03;9.70;78.30
2855;DHT22;1435;49.472;10.940;2023-03-03T17:50:20;9.50;78.80
2855;DHT22;1435;49.472;10.940;2023-03-03T17:55:39;9.40;79.40
2855;DHT22;1435;49.472;10.940;2023-03-03T18:00:56;9.00;80.50
2855;DHT22;1435;49.472;10.940;2023-03-03T18:17:18;8.50;83.70
2855;DHT22;1435;49.472;10.940;2023-03-03T18:22:30;8.30;83.80
2855;DHT22;1435;49.472;10.940;2023-03-03T18:27:35;8.10;84.90
2855;DHT22;1435;49.472;10.940;2023-03-03T18:32:41;7.90;85.30
2855;DHT22;1435;49.472;10.940;2023-03-03T18:37:46;7.70;85.80
2855;DHT22;1435;49.472;10.940;2023-03-03T18:42:48;7.60;86.30
2855;DHT22;1435;49.472;10.940;2023-03-03T18:48:06;7.50;86.70
2855;DHT22;1435;49.472;10.940;2023-03-03T18:53:21;7.30;87.30
2855;DHT22;1435;49.472;10.940;2023-03-03T18:58:38;7.30;87.60
2855;DHT22;1435;49.472;10.940;2023-03-03T19:04:11;7.10;88.00
2855;DHT22;1435;49.472;10.940;2023-03-03T19:09:18;7.00;88.80
2855;DHT22;1435;49.472;10.940;2023-03-03T19:14:31;6.90;89.30
2855;DHT22;1435;49.472;10.940;2023-03-03T19:19:59;6.80;90.10
2855;DHT22;1435;49.472;10.940;2023-03-03T19:25:17;6.70;90.40
2855;DHT22;1435;49.472;10.940;2023-03-03T19:35:50;6.50;90.70
2855;DHT22;1435;49.472;10.940;2023-03-03T19:41:00;6.40;90.60
2855;DHT22;1435;49.472;10.940;2023-03-03T19:46:29;6.30;91.40
2855;DHT22;1435;49.472;10.940;2023-03-03T19:51:41;6.20;91.10
2855;DHT22;1435;49.472;10.940;2023-03-03T19:56:47;6.10;91.10
2855;DHT22;1435;49.472;10.940;2023-03-03T20:01:58;5.90;91.40
2855;DHT22;1435;49.472;10.940;2023-03-03T20:07:12;5.90;91.70
2855;DHT22;1435;49.472;10.940;2023-03-03T20:12:32;5.80;91.80
2855;DHT22;1435;49.472;10.940;2023-03-03T20:17:53;5.70;91.80
2855;DHT22;1435;49.472;10.940;2023-03-03T20:23:05;5.70;92.00
2855;DHT22;1435;49.472;10.940;2023-03-03T20:28:37;5.60;92.30
2855;DHT22;1435;49.472;10.940;2023-03-03T20:33:49;5.50;92.40
2855;DHT22;1435;49.472;10.940;2023-03-03T20:39:02;5.40;93.20
2855;DHT22;1435;49.472;10.940;2023-03-03T20:44:13;5.40;93.30
2855;DHT22;1435;49.472;10.940;2023-03-03T20:49:32;5.40;93.30
2855;DHT22;1435;49.472;10.940;2023-03-03T20:54:43;5.30;93.30
2855;DHT22;1435;49.472;10.940;2023-03-03T20:59:51;5.20;93.50
2855;DHT22;1435;49.472;10.940;2023-03-03T21:05:10;5.10;93.60
2855;DHT22;1435;49.472;10.940;2023-03-03T21:10:15;4.90;93.80
2855;DHT22;1435;49.472;10.940;2023-03-03T21:15:26;4.80;94.30
2855;DHT22;1435;49.472;10.940;2023-03-03T21:20:31;4.50;94.40
2855;DHT22;1435;49.472;10.940;2023-03-03T21:25:47;4.30;95.00
2855;DHT22;1435;49.472;10.940;2023-03-03T21:31:05;4.30;95.10
2855;DHT22;1435;49.472;10.940;2023-03-03T21:36:07;4.10;95.20
2855;DHT22;1435;49.472;10.940;2023-03-03T21:41:10;4.10;95.60
2855;DHT22;1435;49.472;10.940;2023-03-03T21:46:12;4.00;96.30
2855;DHT22;1435;49.472;10.940;2023-03-03T21:51:14;3.90;96.80
2855;DHT22;1435;49.472;10.940;2023-03-03T21:56:17;3.80;96.70
2855;DHT22;1435;49.472;10.940;2023-03-03T22:01:19;3.80;97.10
2855;DHT22;1435;49.472;10.940;2023-03-03T22:06:21;3.70;97.40
2855;DHT22;1435;49.472;10.940;2023-03-03T22:11:24;3.70;97.70
2855;DHT22;1435;49.472;10.940;2023-03-03T22:16:26;3.60;98.00
2855;DHT22;1435;49.472;10.940;2023-03-03T22:21:28;3.60;97.90
2855;DHT22;1435;49.472;10.940;2023-03-03T22:26:31;3.60;98.20
2855;DHT22;1435;49.472;10.940;2023-03-03T22:31:33;3.60;98.40
2855;DHT22;1435;49.472;10.940;2023-03-03T22:36:34;3.50;98.70
2855;DHT22;1435;49.472;10.940;2023-03-03T22:41:37;3.50;98.90
2855;DHT22;1435;49.472;10.940;2023-03-03T22:46:39;3.40;99.40
2855;DHT22;1435;49.472;10.940;2023-03-03T22:51:41;3.40;99.90
2855;DHT22;1435;49.472;10.940;2023-03-03T22:56:44;3.40;99.90
2855;DHT22;1435;49.472;10.940;2023-03-03T23:01:46;3.40;99.90
2855;DHT22;1435;49.472;10.940;2023-03-03T23:06:48;3.40;99.90
2855;DHT22;1435;49.472;10.940;2023-03-03T23:11:51;3.30;99.90
2855;DHT22;1435;49.472;10.940;2023-03-03T23:16:53;3.30;99.90
2855;DHT22;1435;49.472;10.940;2023-03-03T23:21:54;3.30;99.90
2855;DHT22;1435;49.472;10.940;2023-03-03T23:26:57;3.30;99.90
2855;DHT22;1435;49.472;10.940;2023-03-03T23:32:00;3.20;99.90
2855;DHT22;1435;49.472;10.940;2023-03-03T23:37:02;3.20;99.90
2855;DHT22;1435;49.472;10.940;2023-03-03T23:42:05;3.20;99.90
2855;DHT22;1435;49.472;10.940;2023-03-03T23:47:07;3.10;99.90
2855;DHT22;1435;49.472;10.940;2023-03-03T23:52:09;3.10;99.90
2855;DHT22;1435;49.472;10.940;2023-03-03T23:57:12;3.10;99.90
